Time;durP1;ratioP1;P1;durP2;ratioP2;P2;SDS_P1;SDS_P2;PMS_P1;PMS_P2;Temp;Humidity;BMP_temperature;BMP_pressure;BME280_temperature;BME280_humidity;BME280_pressure;Samples;Min_cycle;Max_cycle;Signal;HPM_P1;HPM_P2
2022/10/11 00:00:47;;;;;;;13.10;3.33;;;17.10;99.90;;;;;;5034107;28;20209;-55
2022/10/11 00:03:14;;;;;;;6.53;2.95;;;17.10;99.90;;;;;;5033283;28;20324;-55
2022/10/11 00:05:42;;;;;;;6.97;2.42;;;17.10;99.90;;;;;;5034073;28;20237;-57
2022/10/11 00:08:09;;;;;;;6.63;2.63;;;17.10;99.90;;;;;;5034093;28;20213;-55
2022/10/11 00:10:36;;;;;;;9.73;2.70;;;17.00;99.90;;;;;;5034213;28;20216;-55
2022/10/11 00:13:04;;;;;;;5.78;3.13;;;16.90;99.90;;;;;;5033859;28;20210;-55
2022/10/11 00:15:31;;;;;;;7.30;3.08;;;16.80;99.90;;;;;;5034619;28;20237;-56
2022/10/11 00:18:00;;;;;;;8.68;3.85;;;16.70;99.90;;;;;;5034043;28;20667;-56
2022/10/11 00:20:26;;;;;;;9.95;3.75;;;16.60;99.90;;;;;;5033583;28;20212;-55
2022/10/11 00:22:53;;;;;;;6.22;3.75;;;16.60;99.90;;;;;;5032670;28;20317;-55
2022/10/11 00:25:20;;;;;;;8.43;3.60;;;16.50;99.90;;;;;;5033539;28;20222;-55
2022/10/11 00:27:47;;;;;;;8.00;3.58;;;16.40;99.90;;;;;;5033420;28;20222;-56
2022/10/11 00:30:14;;;;;;;7.50;3.10;;;16.30;99.90;;;;;;5033647;28;20236;-56
2022/10/11 00:32:41;;;;;;;7.57;3.30;;;16.20;99.90;;;;;;5032340;28;20198;-55
2022/10/11 00:35:10;;;;;;;9.25;3.13;;;16.10;99.90;;;;;;5032969;28;20257;-57
2022/10/11 00:37:38;;;;;;;9.97;3.77;;;16.00;99.90;;;;;;5033319;28;20261;-56
2022/10/11 00:40:08;;;;;;;8.20;3.53;;;15.90;99.90;;;;;;5033171;28;20653;-56
2022/10/11 00:42:34;;;;;;;7.57;3.57;;;15.80;99.90;;;;;;5032244;28;20313;-56
2022/10/11 00:45:38;;;;;;;5.03;3.37;;;15.70;99.90;;;;;;5032872;28;20230;-56
2022/10/11 00:48:14;;;;;;;8.13;3.50;;;15.60;99.90;;;;;;5033024;28;20245;-56
2022/10/11 00:50:42;;;;;;;4.57;3.37;;;15.60;99.90;;;;;;5033129;28;20212;-57
2022/10/11 00:53:11;;;;;;;6.40;3.30;;;15.50;99.90;;;;;;5032750;28;20198;-56
2022/10/11 00:55:45;;;;;;;7.60;3.67;;;15.50;99.90;;;;;;5032641;28;20226;-57
2022/10/11 00:58:13;;;;;;;8.93;3.63;;;15.40;99.90;;;;;;5032764;28;20674;-56
2022/10/11 01:00:40;;;;;;;8.37;3.73;;;15.40;99.90;;;;;;5033150;28;20212;-57
2022/10/11 01:03:07;;;;;;;6.70;3.53;;;15.30;99.90;;;;;;5032561;28;20236;-56
2022/10/11 01:05:37;;;;;;;8.03;3.33;;;15.30;99.90;;;;;;5032507;28;20284;-56
2022/10/11 01:08:07;;;;;;;8.73;3.37;;;15.20;99.90;;;;;;5032471;28;20298;-57
2022/10/11 01:10:35;;;;;;;9.70;3.83;;;15.20;99.90;;;;;;5032533;28;20207;-56
2022/10/11 01:13:10;;;;;;;7.77;3.67;;;15.20;99.90;;;;;;5032514;28;20206;-56
2022/10/11 01:15:41;;;;;;;10.17;4.03;;;15.10;99.90;;;;;;5032652;28;20229;-57
2022/10/11 01:18:14;;;;;;;9.00;3.57;;;15.10;99.90;;;;;;5033049;28;20206;-56
2022/10/11 01:20:52;;;;;;;8.87;3.77;;;15.00;99.90;;;;;;5033052;28;20213;-54
2022/10/11 01:23:42;;;;;;;8.30;3.70;;;15.00;99.90;;;;;;5035096;28;20328;-54
2022/10/11 01:27:00;;;;;;;10.97;4.20;;;14.90;99.90;;;;;;5036841;28;20257;-55
2022/10/11 01:29:43;;;;;;;7.03;4.00;;;14.90;99.90;;;;;;5000976;28;20207;-54
2022/10/11 01:32:17;;;;;;;8.43;4.40;;;14.90;99.90;;;;;;5036774;28;20214;-54
2022/10/11 01:34:52;;;;;;;10.23;4.33;;;14.90;99.90;;;;;;5036326;28;20241;-54
2022/10/11 01:37:26;;;;;;;8.33;4.13;;;15.00;99.90;;;;;;5036102;28;20206;-55
2022/10/11 01:39:59;;;;;;;9.43;4.63;;;14.90;99.90;;;;;;5036697;28;20205;-55
2022/10/11 01:42:28;;;;;;;9.73;4.37;;;14.90;99.90;;;;;;5036088;28;20214;-55
2022/10/11 01:44:57;;;;;;;8.97;4.57;;;14.90;99.90;;;;;;5035542;28;20266;-55
2022/10/11 01:47:26;;;;;;;12.57;5.00;;;15.00;99.90;;;;;;5035742;28;20242;-55
2022/10/11 01:49:55;;;;;;;10.47;4.90;;;15.00;99.90;;;;;;5035820;28;20210;-56
2022/10/11 01:52:23;;;;;;;9.13;4.90;;;15.10;99.90;;;;;;5036112;28;20218;-55
2022/10/11 01:55:05;;;;;;;11.17;5.13;;;15.20;99.90;;;;;;5035520;28;20222;-55
2022/10/11 01:58:00;;;;;;;9.17;4.73;;;15.30;99.90;;;;;;5035834;28;20288;-55
2022/10/11 02:00:32;;;;;;;8.37;5.07;;;15.40;99.90;;;;;;5035558;28;20206;-55
2022/10/11 02:03:17;;;;;;;9.47;4.77;;;15.50;99.90;;;;;;5035625;28;20225;-55
2022/10/11 02:05:48;;;;;;;10.70;5.27;;;15.60;99.90;;;;;;5035492;28;20702;-55
2022/10/11 02:08:22;;;;;;;8.90;5.23;;;15.80;99.90;;;;;;5035481;28;20210;-55
2022/10/11 02:10:55;;;;;;;10.70;4.83;;;15.90;99.90;;;;;;5035684;28;20230;-55
2022/10/11 02:13:27;;;;;;;7.77;4.67;;;16.00;99.90;;;;;;5035327;28;20706;-56
2022/10/11 02:15:57;;;;;;;6.07;3.80;;;16.10;99.90;;;;;;5035344;28;20808;-55
2022/10/11 02:18:31;;;;;;;3.87;3.20;;;16.10;99.90;;;;;;5035088;28;20671;-56
2022/10/11 02:21:00;;;;;;;6.07;3.20;;;16.10;99.90;;;;;;5035750;28;20245;-55
2022/10/11 02:23:32;;;;;;;4.57;2.80;;;16.10;99.90;;;;;;5034789;28;20230;-55
2022/10/11 02:26:04;;;;;;;7.07;3.03;;;16.20;99.90;;;;;;5035372;28;20288;-55
2022/10/11 02:28:35;;;;;;;7.77;3.07;;;16.30;99.90;;;;;;5035489;28;20217;-56
2022/10/11 02:31:05;;;;;;;6.10;3.27;;;16.30;99.90;;;;;;5035321;28;20210;-55
2022/10/11 02:33:38;;;;;;;6.60;3.33;;;16.40;99.90;;;;;;5034082;28;20216;-55
2022/10/11 02:36:11;;;;;;;5.47;3.53;;;16.40;99.90;;;;;;5035240;28;20372;-56
2022/10/11 02:38:44;;;;;;;9.37;4.70;;;16.50;99.90;;;;;;5035713;28;20206;-56
2022/10/11 02:41:17;;;;;;;13.53;5.57;;;16.50;99.90;;;;;;5035246;28;20203;-56
2022/10/11 02:43:49;;;;;;;10.60;6.20;;;16.60;99.90;;;;;;5034572;28;20269;-55
2022/10/11 02:46:17;;;;;;;10.03;5.77;;;16.60;99.90;;;;;;5034754;28;20226;-55
2022/10/11 02:48:45;;;;;;;9.73;5.87;;;16.60;99.90;;;;;;5034947;28;20331;-55
2022/10/11 02:51:14;;;;;;;10.43;6.03;;;16.70;99.90;;;;;;5034827;28;20202;-55
2022/10/11 02:53:40;;;;;;;8.43;5.93;;;16.70;99.90;;;;;;5034411;28;20666;-55
2022/10/11 02:56:08;;;;;;;10.60;6.53;;;16.70;99.90;;;;;;5034475;28;20232;-56
2022/10/11 02:58:35;;;;;;;8.38;5.88;;;16.80;99.90;;;;;;5034695;28;20206;-55
2022/10/11 03:01:02;;;;;;;10.33;6.70;;;16.80;99.90;;;;;;5034337;28;20221;-55
2022/10/11 03:03:29;;;;;;;14.07;7.37;;;16.90;99.90;;;;;;5034244;28;20720;-55
2022/10/11 03:06:00;;;;;;;8.73;6.63;;;16.90;99.90;;;;;;5034777;28;20614;-55
2022/10/11 03:08:27;;;;;;;14.95;7.82;;;16.90;99.90;;;;;;5034881;28;20289;-55
2022/10/11 03:10:54;;;;;;;13.80;8.60;;;16.90;99.90;;;;;;5034064;28;20618;-55
2022/10/11 03:13:21;;;;;;;12.23;7.33;;;16.90;99.90;;;;;;5033600;28;20198;-55
2022/10/11 03:15:49;;;;;;;14.83;8.70;;;16.90;99.90;;;;;;5033841;28;20257;-55
2022/10/11 03:18:16;;;;;;;13.23;7.73;;;16.90;99.90;;;;;;5034034;28;20731;-56
2022/10/11 03:20:43;;;;;;;18.60;8.40;;;17.00;99.90;;;;;;5033560;28;20210;-55
2022/10/11 03:23:12;;;;;;;11.57;7.80;;;17.00;99.90;;;;;;5033562;28;20257;-55
2022/10/11 03:25:39;;;;;;;13.03;7.80;;;17.00;99.90;;;;;;5033660;28;20483;-55
2022/10/11 03:28:06;;;;;;;10.60;8.00;;;17.10;99.90;;;;;;5034087;28;20210;-56
2022/10/11 03:30:33;;;;;;;14.97;10.23;;;17.10;99.90;;;;;;5033815;28;20206;-55
2022/10/11 03:33:00;;;;;;;11.90;8.52;;;17.00;99.90;;;;;;5033458;28;20229;-56
2022/10/11 03:35:27;;;;;;;14.82;8.73;;;17.00;99.90;;;;;;5033460;28;20612;-55
2022/10/11 03:37:54;;;;;;;13.02;8.73;;;17.00;99.90;;;;;;5033731;28;20272;-56
2022/10/11 03:40:23;;;;;;;16.73;12.07;;;17.00;99.90;;;;;;5033705;28;20217;-55
2022/10/11 03:42:49;;;;;;;17.50;9.67;;;17.00;99.90;;;;;;5033578;28;20202;-55
2022/10/11 03:45:16;;;;;;;18.13;11.80;;;17.00;99.90;;;;;;5033142;28;20320;-56
2022/10/11 03:47:43;;;;;;;14.73;9.93;;;17.00;99.90;;;;;;5033167;28;20252;-55
2022/10/11 03:50:10;;;;;;;14.63;10.10;;;17.00;99.90;;;;;;5033373;28;20292;-56
2022/10/11 03:52:37;;;;;;;15.68;11.18;;;17.00;99.90;;;;;;5032835;28;20296;-55
2022/10/11 03:55:06;;;;;;;16.80;10.00;;;17.00;99.90;;;;;;5033185;28;20234;-56
2022/10/11 03:57:34;;;;;;;15.05;9.85;;;17.00;99.90;;;;;;5033027;28;20206;-56
2022/10/11 04:00:01;;;;;;;20.63;11.30;;;17.00;99.90;;;;;;5033375;28;20289;-55
2022/10/11 04:02:28;;;;;;;15.27;9.95;;;17.00;99.90;;;;;;5033128;28;20218;-55
2022/10/11 04:04:55;;;;;;;14.45;9.85;;;17.00;99.90;;;;;;5032563;28;20230;-55
2022/10/11 04:07:22;;;;;;;13.67;10.27;;;17.00;99.90;;;;;;5033308;28;20231;-55
2022/10/11 04:09:49;;;;;;;14.95;10.35;;;17.00;99.90;;;;;;5033522;28;20202;-56
2022/10/11 04:12:16;;;;;;;13.63;9.93;;;17.00;99.90;;;;;;5033770;28;20358;-55
2022/10/11 04:14:45;;;;;;;17.70;10.68;;;16.90;99.90;;;;;;5032970;28;20222;-55
2022/10/11 04:17:12;;;;;;;20.27;14.18;;;16.90;99.90;;;;;;5033396;28;20210;-56
2022/10/11 04:19:38;;;;;;;17.90;10.97;;;16.90;99.90;;;;;;5032842;28;20753;-55
2022/10/11 04:22:06;;;;;;;18.90;10.43;;;16.80;99.90;;;;;;5033376;28;20252;-55
2022/10/11 04:24:33;;;;;;;18.60;10.10;;;16.80;99.90;;;;;;5032948;28;20237;-54
2022/10/11 04:26:59;;;;;;;16.23;11.13;;;16.80;99.90;;;;;;5033282;28;20210;-55
2022/10/11 04:29:26;;;;;;;18.37;12.80;;;16.80;99.90;;;;;;5033419;28;20211;-56
2022/10/11 04:31:54;;;;;;;20.33;12.98;;;16.70;99.90;;;;;;5033820;28;20269;-56
2022/10/11 04:34:21;;;;;;;17.40;11.20;;;16.70;99.90;;;;;;5032588;28;20254;-56
2022/10/11 04:36:48;;;;;;;19.43;11.57;;;16.70;99.90;;;;;;5033338;28;20237;-56
2022/10/11 04:39:15;;;;;;;20.73;12.02;;;16.80;99.90;;;;;;5033449;28;20297;-56
2022/10/11 04:41:42;;;;;;;18.70;11.93;;;16.80;99.90;;;;;;5033565;28;20293;-56
2022/10/11 04:44:09;;;;;;;22.33;13.10;;;16.80;99.90;;;;;;5033120;28;20226;-56
2022/10/11 04:46:36;;;;;;;14.75;11.80;;;16.80;99.90;;;;;;5032818;28;20238;-56
2022/10/11 04:49:04;;;;;;;19.43;11.73;;;16.90;99.90;;;;;;5032978;28;20217;-56
2022/10/11 04:51:32;;;;;;;18.03;11.60;;;16.90;99.90;;;;;;5033102;28;20634;-55
2022/10/11 04:53:59;;;;;;;17.90;10.83;;;16.80;99.90;;;;;;5032396;28;20213;-55
2022/10/11 04:56:26;;;;;;;19.67;11.45;;;16.90;99.90;;;;;;5032709;28;20230;-56
2022/10/11 04:58:53;;;;;;;18.23;11.50;;;16.90;99.90;;;;;;5036093;28;20206;-56
2022/10/11 05:01:20;;;;;;;18.00;11.85;;;16.90;99.90;;;;;;5036504;28;20209;-56
2022/10/11 05:03:48;;;;;;;20.73;11.20;;;16.80;99.90;;;;;;5035989;28;20210;-56
2022/10/11 05:06:16;;;;;;;18.65;11.75;;;16.80;99.90;;;;;;5035715;28;20226;-56
2022/10/11 05:08:43;;;;;;;19.40;11.70;;;16.70;99.90;;;;;;5035884;28;20282;-55
2022/10/11 05:11:12;;;;;;;21.10;12.97;;;16.50;99.90;;;;;;5035772;28;20582;-56
2022/10/11 05:13:39;;;;;;;16.30;11.57;;;16.30;99.90;;;;;;5035491;28;20206;-55
2022/10/11 05:16:07;;;;;;;18.55;11.40;;;16.10;99.90;;;;;;5035723;28;20223;-55
2022/10/11 05:18:34;;;;;;;21.48;12.07;;;15.90;99.90;;;;;;5035750;28;20245;-54
2022/10/11 05:21:02;;;;;;;22.77;11.90;;;15.80;99.90;;;;;;5035927;28;20589;-56
2022/10/11 05:23:32;;;;;;;17.60;11.37;;;15.80;99.90;;;;;;5035621;28;20213;-56
2022/10/11 05:26:00;;;;;;;17.40;11.67;;;15.80;99.90;;;;;;5035615;28;20588;-55
2022/10/11 05:28:27;;;;;;;21.73;12.57;;;15.70;99.90;;;;;;5035708;28;20260;-55
2022/10/11 05:30:54;;;;;;;18.67;12.17;;;15.60;99.90;;;;;;5035623;28;20241;-55
2022/10/11 05:33:22;;;;;;;18.63;12.50;;;15.70;99.90;;;;;;5035384;28;20723;-55
2022/10/11 05:35:48;;;;;;;16.27;11.13;;;15.80;99.90;;;;;;5035483;28;20303;-55
2022/10/11 05:38:17;;;;;;;19.27;11.90;;;15.90;99.90;;;;;;5035497;28;20206;-55
2022/10/11 05:40:45;;;;;;;15.50;12.10;;;16.00;99.90;;;;;;5035712;28;20218;-55
2022/10/11 05:43:12;;;;;;;18.23;12.70;;;16.10;99.90;;;;;;5034805;28;20682;-55
2022/10/11 05:45:40;;;;;;;16.73;11.60;;;16.20;99.90;;;;;;5035213;28;20324;-55
2022/10/11 05:48:07;;;;;;;17.77;12.87;;;16.30;99.90;;;;;;5035400;28;20210;-56
2022/10/11 05:50:34;;;;;;;18.27;12.30;;;16.30;99.90;;;;;;5035808;28;20210;-55
2022/10/11 05:53:02;;;;;;;21.20;13.23;;;16.30;99.90;;;;;;5035017;28;20638;-55
2022/10/11 05:55:29;;;;;;;19.47;12.20;;;16.40;99.90;;;;;;5035347;28;20222;-56
2022/10/11 05:57:57;;;;;;;18.03;11.00;;;16.40;99.90;;;;;;5035152;28;20297;-55
2022/10/11 06:00:25;;;;;;;17.90;11.00;;;16.30;99.90;;;;;;5035287;28;20573;-55
2022/10/11 06:02:52;;;;;;;17.33;10.77;;;16.20;99.90;;;;;;5034778;28;20206;-55
2022/10/11 06:05:19;;;;;;;18.47;11.23;;;16.10;99.90;;;;;;5035076;28;20242;-55
2022/10/11 06:07:46;;;;;;;15.07;10.57;;;15.90;99.90;;;;;;5035031;28;20206;-55
2022/10/11 06:10:13;;;;;;;21.40;11.10;;;15.80;99.90;;;;;;5034198;28;20203;-55
2022/10/11 06:12:40;;;;;;;16.97;11.03;;;15.70;99.90;;;;;;5035426;28;20234;-56
2022/10/11 06:15:10;;;;;;;16.97;10.87;;;15.80;99.90;;;;;;5034887;28;20230;-56
2022/10/11 06:17:37;;;;;;;24.07;11.63;;;15.90;99.90;;;;;;5035210;28;20589;-56
2022/10/11 06:20:04;;;;;;;22.77;11.70;;;15.90;99.90;;;;;;5034825;28;20690;-57
2022/10/11 06:22:31;;;;;;;22.40;11.57;;;16.00;99.90;;;;;;5035342;28;20657;-55
2022/10/11 06:24:58;;;;;;;17.88;10.98;;;15.90;99.90;;;;;;5034353;28;20230;-55
2022/10/11 06:27:25;;;;;;;27.40;11.83;;;16.10;99.90;;;;;;5035237;28;20202;-55
2022/10/11 06:29:52;;;;;;;17.20;10.83;;;16.10;99.90;;;;;;5034836;28;20206;-55
2022/10/11 06:32:20;;;;;;;17.37;11.23;;;16.10;99.90;;;;;;5035075;28;20206;-57
2022/10/11 06:34:47;;;;;;;22.33;10.87;;;16.10;99.90;;;;;;5034526;28;20238;-55
2022/10/11 06:37:14;;;;;;;16.77;10.80;;;16.20;99.90;;;;;;5031960;28;20761;-54
2022/10/11 06:39:41;;;;;;;18.13;10.40;;;16.20;99.90;;;;;;5034438;28;20329;-52
2022/10/11 06:42:10;;;;;;;19.77;9.70;;;16.00;99.90;;;;;;5034794;28;20214;-53
2022/10/11 06:44:37;;;;;;;17.60;10.43;;;16.00;99.90;;;;;;5033868;28;20317;-53
2022/10/11 06:47:05;;;;;;;15.57;9.50;;;16.00;99.90;;;;;;5033612;28;20682;-52
2022/10/11 06:49:33;;;;;;;17.90;10.20;;;16.20;99.90;;;;;;5035827;28;20210;-56
2022/10/11 06:52:00;;;;;;;20.55;10.15;;;16.40;99.90;;;;;;5034482;28;20210;-59
2022/10/11 06:54:27;;;;;;;19.10;10.20;;;16.60;99.90;;;;;;5033221;28;20230;-58
2022/10/11 06:56:54;;;;;;;12.73;10.07;;;16.70;99.90;;;;;;5037124;28;20682;-63
2022/10/11 06:59:21;;;;;;;17.98;9.77;;;16.80;99.90;;;;;;5037505;28;20210;-64
2022/10/11 07:01:47;;;;;;;17.65;9.45;;;16.90;99.90;;;;;;5035301;28;20213;-61
2022/10/11 07:04:14;;;;;;;16.00;8.50;;;17.00;99.90;;;;;;5034687;28;20289;-61
2022/10/11 07:06:42;;;;;;;13.75;8.73;;;17.00;99.90;;;;;;5035498;28;20201;-62
2022/10/11 07:09:09;;;;;;;13.43;7.70;;;17.00;99.90;;;;;;5036877;28;20214;-64
2022/10/11 07:11:37;;;;;;;13.55;8.43;;;17.10;99.90;;;;;;5036886;28;20214;-61
2022/10/11 07:14:06;;;;;;;13.80;8.43;;;17.20;99.90;;;;;;5035176;28;20202;-63
2022/10/11 07:16:34;;;;;;;16.25;9.63;;;17.10;99.90;;;;;;5035751;28;20206;-61
2022/10/11 07:19:04;;;;;;;12.25;8.52;;;17.20;99.90;;;;;;5035849;28;20270;-64
2022/10/11 07:21:33;;;;;;;11.98;8.45;;;17.20;99.90;;;;;;5036487;28;20206;-63
2022/10/11 07:24:20;;;;;;;14.00;8.32;;;17.30;99.90;;;;;;5039873;28;20209;-60
2022/10/11 07:26:47;;;;;;;13.85;7.82;;;17.30;99.90;;;;;;5035644;28;20686;-61
2022/10/11 07:29:14;;;;;;;16.25;8.57;;;17.20;99.90;;;;;;5035436;28;20209;-61
2022/10/11 07:31:43;;;;;;;15.57;8.35;;;17.20;99.90;;;;;;5035298;28;20217;-62
2022/10/11 07:34:10;;;;;;;18.50;8.80;;;17.30;99.90;;;;;;5035204;28;20232;-58
2022/10/11 07:36:37;;;;;;;12.90;7.40;;;17.50;99.90;;;;;;5034993;28;20202;-61
2022/10/11 07:39:05;;;;;;;14.00;7.65;;;17.70;99.90;;;;;;5034728;28;20605;-62
2022/10/11 07:41:35;;;;;;;13.18;7.90;;;17.80;99.90;;;;;;5035049;28;20222;-59
2022/10/11 07:44:02;;;;;;;15.40;7.88;;;17.90;99.90;;;;;;5032545;28;20696;-60
2022/10/11 07:46:29;;;;;;;14.23;8.88;;;17.90;99.90;;;;;;5033612;28;20708;-60
2022/10/11 07:48:56;;;;;;;11.55;8.48;;;17.70;99.90;;;;;;5033140;28;20217;-60
2022/10/11 07:51:24;;;;;;;15.32;8.27;;;17.50;99.90;;;;;;5033031;28;20653;-60
2022/10/11 07:53:52;;;;;;;20.33;8.90;;;17.40;99.90;;;;;;5032195;28;20217;-60
2022/10/11 07:56:21;;;;;;;21.52;9.32;;;17.40;99.90;;;;;;5032332;28;20226;-60
2022/10/11 07:58:51;;;;;;;11.70;8.30;;;17.50;99.90;;;;;;5032279;28;20230;-60
2022/10/11 08:01:19;;;;;;;16.60;8.68;;;17.60;99.90;;;;;;5032484;28;20210;-60
2022/10/11 08:03:47;;;;;;;20.08;9.98;;;17.80;99.90;;;;;;5032119;28;20214;-59
2022/10/11 08:06:15;;;;;;;22.50;12.23;;;18.00;99.90;;;;;;5032879;28;20595;-59
2022/10/11 08:08:42;;;;;;;28.48;11.13;;;17.90;99.90;;;;;;5032957;28;20206;-58
2022/10/11 08:11:09;;;;;;;24.10;10.52;;;17.80;99.90;;;;;;5031994;28;20214;-59
2022/10/11 08:13:36;;;;;;;19.83;9.50;;;17.70;99.90;;;;;;5031656;28;20236;-59
2022/10/11 08:16:11;;;;;;;15.63;9.40;;;17.50;99.90;;;;;;5031995;28;20233;-59
2022/10/11 08:18:39;;;;;;;23.58;9.82;;;17.50;99.90;;;;;;5032344;28;20677;-58
2022/10/11 08:21:07;;;;;;;16.55;9.07;;;17.60;99.90;;;;;;5032232;28;20206;-60
2022/10/11 08:23:34;;;;;;;17.83;10.10;;;17.80;99.90;;;;;;5031606;28;20212;-60
2022/10/11 08:26:01;;;;;;;16.75;9.23;;;17.80;99.90;;;;;;5032789;28;20254;-60
2022/10/11 08:28:28;;;;;;;20.58;10.25;;;17.90;99.90;;;;;;5032416;28;20213;-60
2022/10/11 08:30:55;;;;;;;20.15;9.70;;;17.90;99.90;;;;;;5032572;28;20218;-60
2022/10/11 08:33:25;;;;;;;23.48;9.77;;;18.00;99.90;;;;;;5030810;28;20213;-60
2022/10/11 08:35:52;;;;;;;20.85;9.27;;;18.00;99.90;;;;;;5031428;28;20230;-60
2022/10/11 08:38:20;;;;;;;21.77;10.15;;;18.10;99.90;;;;;;5031999;28;20788;-60
2022/10/11 08:40:49;;;;;;;19.60;10.00;;;18.10;99.90;;;;;;5032594;28;20298;-60
2022/10/11 08:43:39;;;;;;;15.90;9.68;;;18.20;99.90;;;;;;5031745;28;20725;-60
2022/10/11 08:46:08;;;;;;;23.17;10.68;;;18.30;99.90;;;;;;5031942;28;20222;-58
2022/10/11 08:48:41;;;;;;;19.73;10.02;;;18.30;99.90;;;;;;5032895;28;20285;-59
2022/10/11 08:51:16;;;;;;;15.20;10.07;;;18.30;99.90;;;;;;5032957;28;20214;-59
2022/10/11 08:53:49;;;;;;;20.83;11.48;;;18.10;99.90;;;;;;5032159;28;20344;-59
2022/10/11 08:56:17;;;;;;;23.15;12.15;;;17.90;99.90;;;;;;5031947;28;20741;-59
2022/10/11 08:58:49;;;;;;;20.20;10.75;;;17.80;99.90;;;;;;5032160;28;20260;-59
2022/10/11 09:01:20;;;;;;;23.60;10.70;;;17.70;99.90;;;;;;5031380;28;20212;-59
2022/10/11 09:03:49;;;;;;;19.33;11.48;;;17.70;99.90;;;;;;5031117;28;20260;-59
2022/10/11 09:06:32;;;;;;;21.42;11.02;;;17.70;99.90;;;;;;5031259;28;20257;-59
2022/10/11 09:09:21;;;;;;;23.27;12.07;;;17.60;99.90;;;;;;5031370;28;20214;-58
2022/10/11 09:12:00;;;;;;;26.70;12.23;;;17.70;99.90;;;;;;5031833;28;20556;-59
2022/10/11 09:14:46;;;;;;;23.33;11.48;;;17.80;99.90;;;;;;5030825;28;20332;-58
2022/10/11 09:17:25;;;;;;;22.13;11.95;;;17.90;99.90;;;;;;5031534;28;20198;-61
2022/10/11 09:20:19;;;;;;;22.40;11.45;;;18.00;99.90;;;;;;5033857;28;20261;-57
2022/10/11 09:22:51;;;;;;;24.00;12.43;;;18.10;99.90;;;;;;5030584;28;20202;-57
2022/10/11 09:25:24;;;;;;;18.23;11.20;;;18.10;99.90;;;;;;5031191;28;20233;-60
2022/10/11 09:28:02;;;;;;;23.40;11.73;;;18.10;99.90;;;;;;5032108;28;20597;-63
2022/10/11 09:30:29;;;;;;;21.88;11.88;;;18.20;99.90;;;;;;5032787;28;20230;-62
2022/10/11 09:33:08;;;;;;;23.23;10.95;;;18.40;99.90;;;;;;5031679;28;20244;-61
2022/10/11 09:35:43;;;;;;;18.63;11.38;;;18.60;99.90;;;;;;5031385;28;20234;-61
2022/10/11 09:38:24;;;;;;;25.67;11.55;;;18.70;99.90;;;;;;5032011;28;20206;-61
2022/10/11 09:41:05;;;;;;;22.00;11.68;;;18.60;99.90;;;;;;5031959;28;20647;-60
2022/10/11 09:43:32;;;;;;;18.77;11.05;;;18.60;99.90;;;;;;5032426;28;20225;-59
2022/10/11 09:45:59;;;;;;;16.67;11.43;;;18.60;99.90;;;;;;5034447;28;20249;-61
2022/10/11 09:48:28;;;;;;;16.30;10.77;;;18.60;99.90;;;;;;5034719;28;20264;-59
2022/10/11 09:51:04;;;;;;;19.60;10.55;;;18.70;99.90;;;;;;5034648;28;20504;-59
2022/10/11 09:53:52;;;;;;;20.17;11.32;;;18.70;99.90;;;;;;5033714;28;20214;-60
2022/10/11 09:56:19;;;;;;;20.58;10.43;;;18.80;99.90;;;;;;5038262;28;20222;-62
2022/10/11 09:58:46;;;;;;;19.48;10.35;;;19.10;99.90;;;;;;5035537;28;20289;-63
2022/10/11 10:01:23;;;;;;;24.38;10.50;;;19.30;99.90;;;;;;5037591;28;20674;-62
2022/10/11 10:04:06;;;;;;;18.88;10.43;;;19.70;99.90;;;;;;5035963;28;20206;-63
2022/10/11 10:06:34;;;;;;;24.42;10.13;;;20.00;99.90;;;;;;5036746;28;20237;-64
2022/10/11 10:09:24;;;;;;;15.35;9.45;;;20.10;99.90;;;;;;5039162;28;20249;-64
2022/10/11 10:11:51;;;;;;;16.45;9.65;;;20.20;99.90;;;;;;5039980;28;20229;-62
2022/10/11 10:14:22;;;;;;;12.82;8.23;;;20.20;99.90;;;;;;5037202;28;20210;-64
2022/10/11 10:16:57;;;;;;;16.92;9.68;;;20.20;99.90;;;;;;5038053;28;20202;-65
2022/10/11 10:19:25;;;;;;;12.65;8.13;;;20.20;99.90;;;;;;5035860;28;20201;-65
2022/10/11 10:21:55;;;;;;;16.02;8.35;;;20.20;99.90;;;;;;5035938;28;20605;-64
2022/10/11 10:24:36;;;;;;;19.98;11.10;;;20.30;99.90;;;;;;5035164;28;20210;-62
2022/10/11 10:27:15;;;;;;;14.07;8.27;;;20.40;99.90;;;;;;5034041;28;20237;-62
2022/10/11 10:29:43;;;;;;;13.20;8.10;;;20.60;99.90;;;;;;5034885;28;20574;-61
2022/10/11 10:32:13;;;;;;;10.30;6.80;;;20.70;99.90;;;;;;5034730;28;20202;-63
2022/10/11 10:34:51;;;;;;;10.15;7.35;;;20.80;99.90;;;;;;5036611;28;20321;-64
2022/10/11 10:37:26;;;;;;;12.95;7.38;;;20.80;99.90;;;;;;5034716;28;20202;-62
2022/10/11 10:39:58;;;;;;;12.93;7.47;;;20.90;99.90;;;;;;5033427;28;20685;-60
2022/10/11 10:42:25;;;;;;;12.40;7.65;;;20.90;99.90;;;;;;5034918;28;20212;-60
2022/10/11 10:44:57;;;;;;;12.07;7.50;;;20.90;99.90;;;;;;5033801;28;20241;-61
2022/10/11 10:47:43;;;;;;;12.82;6.90;;;20.90;99.90;;;;;;5034139;28;20223;-61
2022/10/11 10:50:16;;;;;;;12.55;7.05;;;20.80;99.90;;;;;;5034822;28;20257;-61
2022/10/11 10:52:54;;;;;;;16.05;7.45;;;20.80;99.90;;;;;;5034476;28;20211;-59
2022/10/11 10:55:26;;;;;;;12.73;6.80;;;20.70;99.90;;;;;;5034404;28;20330;-62
2022/10/11 10:58:06;;;;;;;12.93;6.63;;;20.80;99.90;;;;;;5034506;28;20210;-62
2022/10/11 11:00:41;;;;;;;9.23;6.57;;;20.80;99.90;;;;;;5034232;28;20575;-61
2022/10/11 11:03:14;;;;;;;13.75;7.00;;;20.90;99.90;;;;;;5033840;28;20231;-64
2022/10/11 11:05:47;;;;;;;10.25;6.95;;;20.80;99.90;;;;;;5033585;28;20222;-62
2022/10/11 11:08:29;;;;;;;15.38;6.97;;;20.60;99.90;;;;;;5033310;28;20244;-61
2022/10/11 11:11:01;;;;;;;11.32;6.80;;;20.50;99.90;;;;;;5034393;28;20289;-60
2022/10/11 11:13:36;;;;;;;12.80;7.32;;;20.50;99.90;;;;;;5033846;28;20225;-60
2022/10/11 11:16:13;;;;;;;13.05;6.72;;;20.60;99.90;;;;;;5033821;28;20709;-61
2022/10/11 11:18:47;;;;;;;12.90;6.45;;;20.60;99.90;;;;;;5033540;28;20212;-61
2022/10/11 11:21:26;;;;;;;12.60;6.00;;;20.70;99.90;;;;;;5034564;28;20203;-62
2022/10/11 11:24:04;;;;;;;11.90;6.13;;;20.80;99.90;;;;;;5034019;28;20210;-59
2022/10/11 11:26:39;;;;;;;10.50;6.70;;;20.80;99.90;;;;;;5034531;28;20222;-60
2022/10/11 11:29:14;;;;;;;12.07;6.68;;;20.60;99.90;;;;;;5034524;28;20206;-59
2022/10/11 11:31:59;;;;;;;10.98;6.25;;;20.30;99.90;;;;;;5035341;28;20601;-57
2022/10/11 11:34:31;;;;;;;9.63;5.55;;;20.30;99.90;;;;;;5034244;28;20222;-60
2022/10/11 11:37:02;;;;;;;12.27;5.80;;;20.40;99.90;;;;;;5035355;28;20463;-59
2022/10/11 11:39:35;;;;;;;14.57;6.65;;;20.50;99.90;;;;;;5035303;28;20217;-58
2022/10/11 11:42:08;;;;;;;12.13;6.55;;;20.50;99.90;;;;;;5035412;28;20637;-58
2022/10/11 11:44:39;;;;;;;15.57;7.63;;;20.30;99.90;;;;;;5033739;28;20698;-58
2022/10/11 11:47:11;;;;;;;10.20;5.40;;;20.20;99.90;;;;;;5034190;28;20276;-58
2022/10/11 11:49:43;;;;;;;10.55;5.65;;;20.30;99.90;;;;;;5034280;28;20285;-58
2022/10/11 11:52:17;;;;;;;8.52;5.47;;;20.50;99.90;;;;;;5034492;28;20207;-58
2022/10/11 11:54:54;;;;;;;8.15;5.45;;;20.70;99.90;;;;;;5033888;28;20229;-58
2022/10/11 11:57:33;;;;;;;8.95;5.40;;;20.80;99.90;;;;;;5034102;28;20699;-57
2022/10/11 12:00:05;;;;;;;10.60;5.68;;;20.90;99.90;;;;;;5033888;28;20260;-58
2022/10/11 12:02:43;;;;;;;11.80;5.72;;;20.90;99.90;;;;;;5033493;28;20265;-58
2022/10/11 12:05:12;;;;;;;9.70;5.70;;;20.90;99.90;;;;;;5033343;28;20222;-58
2022/10/11 12:07:57;;;;;;;11.52;5.63;;;20.90;99.90;;;;;;5032497;28;20313;-58
2022/10/11 12:10:29;;;;;;;10.32;5.90;;;20.90;99.90;;;;;;5033676;28;20216;-58
2022/10/11 12:13:26;;;;;;;11.60;5.80;;;21.00;99.90;;;;;;5033541;28;20210;-57
2022/10/11 12:16:09;;;;;;;9.75;5.97;;;20.70;99.90;;;;;;5033944;28;20317;-58
2022/10/11 12:18:47;;;;;;;14.73;6.50;;;20.30;99.90;;;;;;5032917;28;20211;-59
2022/10/11 12:21:21;;;;;;;14.32;6.38;;;20.00;99.90;;;;;;5034053;28;20221;-56
2022/10/11 12:23:48;;;;;;;11.57;5.72;;;19.90;99.90;;;;;;5032971;28;20213;-59
2022/10/11 12:26:33;;;;;;;13.43;5.75;;;19.90;99.90;;;;;;5033370;28;20244;-58
2022/10/11 12:29:03;;;;;;;9.10;5.50;;;20.00;99.90;;;;;;5033461;28;20297;-58
2022/10/11 12:31:32;;;;;;;10.75;5.60;;;19.80;99.90;;;;;;5034205;28;20206;-58
2022/10/11 12:34:31;;;;;;;15.90;5.82;;;19.60;99.90;;;;;;5034242;28;20819;-58
2022/10/11 12:36:58;;;;;;;23.40;8.48;;;19.70;99.90;;;;;;5033915;28;20260;-58
2022/10/11 12:39:44;;;;;;;10.98;7.00;;;19.70;99.90;;;;;;5033776;28;20217;-58
2022/10/11 12:42:29;;;;;;;13.48;6.63;;;19.80;99.90;;;;;;5034612;28;20210;-58
2022/10/11 12:45:33;;;;;;;12.77;6.13;;;19.90;99.90;;;;;;5033976;28;20229;-57
2022/10/11 12:48:44;;;;;;;11.05;5.70;;;20.30;99.90;;;;;;4953272;29;20229;-57
2022/10/11 12:51:36;;;;;;;11.38;5.53;;;20.80;99.90;;;;;;4972289;28;20608;-58
2022/10/11 12:54:29;;;;;;;9.40;4.97;;;21.30;99.90;;;;;;4972475;28;20243;-58
2022/10/11 12:57:18;;;;;;;11.48;5.53;;;21.60;99.90;;;;;;4996133;28;20688;-59